Time;durP1;ratioP1;P1;durP2;ratioP2;P2;SDS_P1;SDS_P2;PMS_P1;PMS_P2;Temp;Humidity;BMP_temperature;BMP_pressure;BME280_temperature;BME280_humidity;BME280_pressure;Samples;Min_cycle;Max_cycle;Signal;HPM_P1;HPM_P2
2023/04/11 00:01:25;;;;;;;96.97;47.05;;;;;;;;;;4811740;29;20066;-81
2023/04/11 00:04:11;;;;;;;86.88;47.75;;;;;;;;;;4799595;29;20039;-80
2023/04/11 00:06:56;;;;;;;79.13;41.95;;;;;;;;;;4811940;29;20378;-81
2023/04/11 00:09:43;;;;;;;81.10;42.60;;;;;;;;;;4814082;29;20042;-81
2023/04/11 00:12:28;;;;;;;81.90;43.92;;;;;;;;;;4812353;29;20054;-80
2023/04/11 00:15:15;;;;;;;66.72;37.42;;;;;;;;;;4813871;29;20043;-78
2023/04/11 00:18:00;;;;;;;66.05;37.17;;;;;;;;;;4805840;29;20051;-80
2023/04/11 00:20:45;;;;;;;64.15;36.47;;;;;;;;;;4811588;29;20038;-79
2023/04/11 00:23:31;;;;;;;65.15;38.17;;;;;;;;;;4813265;29;20070;-79
2023/04/11 00:26:16;;;;;;;60.45;36.78;;;;;;;;;;4804834;29;20058;-79
2023/04/11 00:29:02;;;;;;;64.43;37.50;;;;;;;;;;4813024;29;20051;-79
2023/04/11 00:31:47;;;;;;;65.80;40.03;;;;;;;;;;4781610;29;20055;-78
2023/04/11 00:34:33;;;;;;;74.80;40.70;;;;;;;;;;4786806;29;20051;-79
2023/04/11 00:37:20;;;;;;;70.00;41.22;;;;;;;;;;4783395;29;20402;-78
2023/04/11 00:40:06;;;;;;;81.40;44.35;;;;;;;;;;4771656;29;20051;-78
2023/04/11 00:42:52;;;;;;;70.13;38.33;;;;;;;;;;4784896;29;20498;-78
2023/04/11 00:45:37;;;;;;;61.38;36.05;;;;;;;;;;4785493;30;20059;-79
2023/04/11 00:48:27;;;;;;;76.05;41.33;;;;;;;;;;4785473;30;20047;-78
2023/04/11 00:51:14;;;;;;;72.13;39.17;;;;;;;;;;4783332;29;20055;-79
2023/04/11 00:54:00;;;;;;;72.93;41.90;;;;;;;;;;4786990;30;20047;-78
2023/04/11 00:56:44;;;;;;;79.22;42.75;;;;;;;;;;4777323;30;20158;-79
2023/04/11 00:59:31;;;;;;;76.07;44.05;;;;;;;;;;4783335;29;20052;-79
2023/04/11 01:02:17;;;;;;;59.08;36.33;;;;;;;;;;4783090;29;20383;-80
2023/04/11 01:05:04;;;;;;;62.65;35.92;;;;;;;;;;4783101;29;20051;-80
2023/04/11 01:07:51;;;;;;;58.65;33.85;;;;;;;;;;4785516;30;20406;-80
2023/04/11 01:10:38;;;;;;;56.60;33.55;;;;;;;;;;4771584;29;20067;-79
2023/04/11 01:13:23;;;;;;;66.43;37.25;;;;;;;;;;4785327;30;20051;-79
2023/04/11 01:16:09;;;;;;;67.63;36.78;;;;;;;;;;4785279;30;20043;-79
2023/04/11 01:18:54;;;;;;;62.67;34.95;;;;;;;;;;4784622;29;20481;-79
2023/04/11 01:21:40;;;;;;;61.60;35.22;;;;;;;;;;4784743;30;20414;-80
2023/04/11 01:24:25;;;;;;;59.33;34.35;;;;;;;;;;4784523;29;20059;-81
2023/04/11 01:27:10;;;;;;;57.47;31.73;;;;;;;;;;4786118;30;20047;-80
2023/04/11 01:29:55;;;;;;;59.70;31.80;;;;;;;;;;4786103;29;20059;-82
2023/04/11 01:32:43;;;;;;;49.03;30.73;;;;;;;;;;4800961;29;20051;-80
2023/04/11 01:35:29;;;;;;;50.60;30.00;;;;;;;;;;4800880;29;20050;-80
2023/04/11 01:38:14;;;;;;;50.83;29.75;;;;;;;;;;4801554;29;20050;-80
2023/04/11 01:41:01;;;;;;;54.55;30.05;;;;;;;;;;4794456;29;20055;-81
2023/04/11 01:43:47;;;;;;;49.30;28.80;;;;;;;;;;4800907;29;20058;-80
2023/04/11 01:46:32;;;;;;;52.35;30.52;;;;;;;;;;4800630;29;20496;-81
2023/04/11 01:49:20;;;;;;;49.78;28.88;;;;;;;;;;4803179;29;20054;-80
2023/04/11 01:52:05;;;;;;;46.97;28.60;;;;;;;;;;4807589;29;20062;-81
2023/04/11 01:54:50;;;;;;;47.67;28.35;;;;;;;;;;4793645;29;20071;-80
2023/04/11 01:57:35;;;;;;;46.03;27.83;;;;;;;;;;4800095;29;20043;-80
2023/04/11 02:00:22;;;;;;;45.10;27.75;;;;;;;;;;4799622;29;20055;-81
2023/04/11 02:03:10;;;;;;;51.30;29.30;;;;;;;;;;4801219;29;20054;-81
2023/04/11 02:05:55;;;;;;;44.97;27.90;;;;;;;;;;4801313;29;20051;-80
2023/04/11 02:08:40;;;;;;;48.50;28.35;;;;;;;;;;4799573;29;20047;-79
2023/04/11 02:11:25;;;;;;;46.53;28.73;;;;;;;;;;4799866;29;20051;-79
2023/04/11 02:14:13;;;;;;;48.33;29.30;;;;;;;;;;4801943;29;20043;-80
2023/04/11 02:16:58;;;;;;;48.45;29.92;;;;;;;;;;4801915;29;20043;-79
2023/04/11 02:30:19;;;;;;;47.47;27.48;;;;;;;;;;5110191;27;20396;-77
2023/04/11 02:33:05;;;;;;;56.05;29.92;;;;;;;;;;5110561;28;20044;-77
2023/04/11 02:35:52;;;;;;;52.70;30.17;;;;;;;;;;5110363;28;20048;-78
2023/04/11 02:38:37;;;;;;;45.72;28.02;;;;;;;;;;5102637;28;20485;-78
2023/04/11 02:41:22;;;;;;;46.17;27.80;;;;;;;;;;5116218;28;20477;-77
2023/04/11 02:44:10;;;;;;;52.20;30.77;;;;;;;;;;5110327;28;20409;-78
2023/04/11 02:46:57;;;;;;;54.13;31.20;;;;;;;;;;5116289;28;20497;-77
2023/04/11 02:49:43;;;;;;;50.75;29.65;;;;;;;;;;5116644;28;20401;-78
2023/04/11 02:52:36;;;;;;;50.67;30.15;;;;;;;;;;5116078;28;20047;-79
2023/04/11 02:55:22;;;;;;;54.00;30.65;;;;;;;;;;5116528;28;20036;-77
2023/04/11 02:58:08;;;;;;;51.58;28.63;;;;;;;;;;5115019;28;20048;-79
2023/04/11 03:00:55;;;;;;;50.45;27.63;;;;;;;;;;5116499;28;20048;-77
2023/04/11 03:03:40;;;;;;;47.97;27.83;;;;;;;;;;5115806;28;20043;-79
2023/04/11 03:06:27;;;;;;;50.08;29.05;;;;;;;;;;5115697;28;20389;-79
2023/04/11 03:09:17;;;;;;;46.20;28.83;;;;;;;;;;5102062;28;20048;-78
2023/04/11 03:12:02;;;;;;;50.55;27.35;;;;;;;;;;5116367;28;20044;-77
2023/04/11 03:14:47;;;;;;;44.78;27.92;;;;;;;;;;5115519;28;20036;-79
2023/04/11 03:17:33;;;;;;;49.75;28.83;;;;;;;;;;5115547;28;20393;-80
2023/04/11 03:20:19;;;;;;;44.85;27.90;;;;;;;;;;5145553;27;20044;-78
2023/04/11 03:23:06;;;;;;;50.20;29.30;;;;;;;;;;5115459;28;20040;-79
2023/04/11 03:25:53;;;;;;;53.58;29.52;;;;;;;;;;5115174;28;20039;-78
2023/04/11 03:28:37;;;;;;;52.00;29.75;;;;;;;;;;5113289;28;20044;-78
2023/04/11 03:31:23;;;;;;;43.67;28.02;;;;;;;;;;5101181;28;20043;-78
2023/04/11 03:34:13;;;;;;;50.88;28.50;;;;;;;;;;5102190;28;20044;-78
2023/04/11 03:36:59;;;;;;;58.28;31.35;;;;;;;;;;5100702;28;20048;-77
2023/04/11 03:39:45;;;;;;;52.78;30.35;;;;;;;;;;5100739;28;20044;-78
2023/04/11 03:42:30;;;;;;;54.70;31.20;;;;;;;;;;5101537;28;20389;-78
2023/04/11 03:45:18;;;;;;;47.13;29.40;;;;;;;;;;5101221;28;20036;-80
2023/04/11 03:48:05;;;;;;;47.75;28.00;;;;;;;;;;5102051;28;20044;-77
2023/04/11 03:51:03;;;;;;;48.50;28.55;;;;;;;;;;5100737;28;20036;-78
2023/04/11 03:53:58;;;;;;;;;;;;;;;;;;5101598;28;20052;-80
2023/04/11 03:56:50;;;;;;;51.78;26.95;;;;;;;;;;5087998;28;19919;-79
2023/04/11 03:59:40;;;;;;;57.08;29.90;;;;;;;;;;5100592;28;20044;-79
2023/04/11 04:02:27;;;;;;;49.50;30.77;;;;;;;;;;5101520;28;20048;-79
2023/04/11 04:05:13;;;;;;;50.30;29.15;;;;;;;;;;5101732;28;20040;-78
2023/04/11 04:08:00;;;;;;;46.72;27.45;;;;;;;;;;5100684;28;20044;-78
2023/04/11 04:11:04;;;;;;;36.92;20.02;;;;;;;;;;5101613;28;20478;-78
2023/04/11 04:13:52;;;;;;;52.10;28.45;;;;;;;;;;5095266;28;20040;-79
2023/04/11 04:16:38;;;;;;;47.42;27.83;;;;;;;;;;5100714;28;20051;-77
2023/04/11 04:19:25;;;;;;;49.80;28.17;;;;;;;;;;5101223;28;20040;-79
2023/04/11 04:22:12;;;;;;;50.72;28.20;;;;;;;;;;5100813;28;20040;-79
2023/04/11 04:25:02;;;;;;;47.30;28.00;;;;;;;;;;5100669;28;20043;-78
2023/04/11 04:27:52;;;;;;;46.17;28.15;;;;;;;;;;5099791;28;20044;-79
2023/04/11 04:30:39;;;;;;;46.58;26.98;;;;;;;;;;5087119;28;20434;-79
2023/04/11 04:33:31;;;;;;;51.63;28.48;;;;;;;;;;5100529;28;20043;-79
2023/04/11 04:36:18;;;;;;;53.58;30.63;;;;;;;;;;5087218;28;20040;-79
2023/04/11 04:39:05;;;;;;;60.35;32.88;;;;;;;;;;5100101;28;20429;-78
2023/04/11 04:41:58;;;;;;;63.17;32.95;;;;;;;;;;5099951;28;20043;-78
2023/04/11 04:44:52;;;;;;;65.20;35.15;;;;;;;;;;5100628;28;20397;-79
2023/04/11 04:47:38;;;;;;;122.60;50.63;;;;;;;;;;5100250;28;20506;-78
2023/04/11 04:50:23;;;;;;;176.93;74.18;;;;;;;;;;5086143;28;20048;-79
2023/04/11 04:53:09;;;;;;;163.32;72.43;;;;;;;;;;5100508;28;20040;-77
2023/04/11 04:56:00;;;;;;;92.20;47.03;;;;;;;;;;5099887;28;20055;-78
2023/04/11 04:58:48;;;;;;;113.30;51.67;;;;;;;;;;5099818;28;20485;-78
2023/04/11 05:01:38;;;;;;;91.10;44.78;;;;;;;;;;5099977;28;20055;-79
2023/04/11 05:04:24;;;;;;;78.07;42.45;;;;;;;;;;5099687;28;20044;-77
2023/04/11 05:07:13;;;;;;;76.72;43.10;;;;;;;;;;5100519;28;20044;-79
2023/04/11 05:09:58;;;;;;;83.50;47.25;;;;;;;;;;5099698;28;20474;-77
2023/04/11 05:12:46;;;;;;;88.40;48.83;;;;;;;;;;5100532;28;20051;-77
2023/04/11 05:15:33;;;;;;;91.00;50.95;;;;;;;;;;5085539;28;20040;-79
2023/04/11 05:18:18;;;;;;;90.35;45.67;;;;;;;;;;5094306;28;20044;-78
2023/04/11 05:21:04;;;;;;;93.20;47.15;;;;;;;;;;5100443;28;20040;-79
2023/04/11 05:23:54;;;;;;;84.82;43.60;;;;;;;;;;5100304;28;20486;-77
2023/04/11 05:26:40;;;;;;;74.30;39.75;;;;;;;;;;5099867;28;20048;-78
2023/04/11 05:29:26;;;;;;;75.65;39.50;;;;;;;;;;5094652;28;20040;-77
2023/04/11 05:32:12;;;;;;;75.55;41.17;;;;;;;;;;5099921;28;20043;-79
2023/04/11 05:34:58;;;;;;;73.40;39.45;;;;;;;;;;5100093;28;20060;-77
2023/04/11 05:37:51;;;;;;;77.35;41.83;;;;;;;;;;5086887;28;20040;-79
2023/04/11 05:40:36;;;;;;;79.18;42.17;;;;;;;;;;5099832;28;20047;-79
2023/04/11 05:43:21;;;;;;;74.20;41.72;;;;;;;;;;5093646;28;20051;-77
2023/04/11 05:46:08;;;;;;;76.20;43.13;;;;;;;;;;5099689;28;20397;-79
2023/04/11 05:48:56;;;;;;;73.55;43.05;;;;;;;;;;5093720;28;20044;-79
2023/04/11 05:51:42;;;;;;;77.03;43.58;;;;;;;;;;5092554;28;20048;-77
2023/04/11 05:54:33;;;;;;;99.38;50.85;;;;;;;;;;5098647;28;20040;-77
2023/04/11 05:57:18;;;;;;;163.35;81.00;;;;;;;;;;5093656;28;20036;-77
2023/04/11 06:00:11;;;;;;;131.45;65.00;;;;;;;;;;5093486;28;20044;-77
2023/04/11 06:02:58;;;;;;;117.93;62.63;;;;;;;;;;5099369;28;20040;-78
2023/04/11 06:05:44;;;;;;;111.30;58.35;;;;;;;;;;5092168;28;20040;-79
2023/04/11 06:08:30;;;;;;;81.03;46.67;;;;;;;;;;5093197;28;20498;-79
2023/04/11 06:11:15;;;;;;;51.58;32.25;;;;;;;;;;5093275;28;20044;-79
2023/04/11 06:14:03;;;;;;;57.10;33.90;;;;;;;;;;5093422;28;20044;-77
2023/04/11 06:16:48;;;;;;;56.03;34.03;;;;;;;;;;5092197;28;20048;-77
2023/04/11 06:19:34;;;;;;;55.85;34.33;;;;;;;;;;5092291;28;20052;-80
2023/04/11 06:22:20;;;;;;;50.95;32.15;;;;;;;;;;5093797;28;20041;-77
2023/04/11 06:25:06;;;;;;;47.50;29.45;;;;;;;;;;5093022;28;20040;-77
2023/04/11 06:27:52;;;;;;;61.90;34.13;;;;;;;;;;5091789;28;20040;-77
2023/04/11 06:30:37;;;;;;;66.65;37.15;;;;;;;;;;5093247;28;20044;-80
2023/04/11 06:33:23;;;;;;;59.03;34.75;;;;;;;;;;5092811;28;20458;-79
2023/04/11 06:36:09;;;;;;;62.58;35.67;;;;;;;;;;5091721;28;20048;-78
2023/04/11 06:38:54;;;;;;;59.13;33.38;;;;;;;;;;5093305;28;20044;-78
2023/04/11 06:41:39;;;;;;;68.95;35.95;;;;;;;;;;5092154;28;20044;-79
2023/04/11 06:44:24;;;;;;;58.60;35.30;;;;;;;;;;5092104;28;20393;-77
2023/04/11 06:47:10;;;;;;;44.00;25.65;;;;;;;;;;5092561;28;20044;-76
2023/04/11 06:49:56;;;;;;;37.05;21.40;;;;;;;;;;5092851;28;20044;-78
2023/04/11 06:52:41;;;;;;;63.42;33.80;;;;;;;;;;5091318;28;20052;-80
2023/04/11 06:55:25;;;;;;;57.95;34.83;;;;;;;;;;5092548;28;20040;-76
2023/04/11 06:58:11;;;;;;;60.40;37.35;;;;;;;;;;5092398;28;20466;-78
2023/04/11 07:00:57;;;;;;;101.82;57.28;;;;;;;;;;5090650;28;20040;-76
2023/04/11 07:03:42;;;;;;;48.75;27.25;;;;;;;;;;5090302;28;20036;-78
2023/04/11 07:06:28;;;;;;;58.75;33.90;;;;;;;;;;5094189;28;20040;-79
2023/04/11 07:09:13;;;;;;;62.97;36.50;;;;;;;;;;5094039;28;20044;-80
2023/04/11 07:12:00;;;;;;;57.90;34.72;;;;;;;;;;5094524;28;20039;-78
2023/04/11 07:14:44;;;;;;;46.38;31.30;;;;;;;;;;5094256;28;20039;-80
2023/04/11 07:17:30;;;;;;;51.60;30.10;;;;;;;;;;5095381;28;20052;-78
2023/04/11 07:20:16;;;;;;;44.40;28.73;;;;;;;;;;5094756;28;20397;-77
2023/04/11 07:23:02;;;;;;;39.33;25.98;;;;;;;;;;5095510;28;20039;-77
2023/04/11 07:25:48;;;;;;;25.67;15.88;;;;;;;;;;5096641;28;20397;-81
2023/04/11 07:28:36;;;;;;;83.57;39.40;;;;;;;;;;5094521;28;20040;-79
2023/04/11 07:31:21;;;;;;;58.22;27.83;;;;;;;;;;5095908;28;20044;-76
2023/04/11 07:34:07;;;;;;;42.22;24.00;;;;;;;;;;5095831;28;20048;-79
2023/04/11 07:36:59;;;;;;;42.00;22.85;;;;;;;;;;5095911;28;20489;-77
2023/04/11 07:39:45;;;;;;;40.03;24.10;;;;;;;;;;5095134;28;20044;-77
2023/04/11 07:42:30;;;;;;;16.58;10.88;;;;;;;;;;5101539;28;20043;-78
2023/04/11 07:45:15;;;;;;;36.47;20.85;;;;;;;;;;5095665;28;20032;-80
2023/04/11 07:48:01;;;;;;;19.05;11.70;;;;;;;;;;5096095;28;20036;-80
2023/04/11 07:50:46;;;;;;;29.08;17.58;;;;;;;;;;5094612;28;20478;-79
2023/04/11 07:53:32;;;;;;;38.15;22.05;;;;;;;;;;5096127;28;20044;-81
2023/04/11 07:56:20;;;;;;;34.40;18.55;;;;;;;;;;5095233;28;20040;-77
2023/04/11 07:59:05;;;;;;;28.77;16.50;;;;;;;;;;5094955;28;20040;-77
2023/04/11 08:01:59;;;;;;;33.47;21.17;;;;;;;;;;5095184;28;20043;-77
2023/04/11 08:04:44;;;;;;;18.83;11.73;;;;;;;;;;5095136;28;20036;-77
2023/04/11 08:07:29;;;;;;;24.08;11.90;;;;;;;;;;5095182;28;20048;-80
2023/04/11 08:10:15;;;;;;;39.33;21.13;;;;;;;;;;5095678;28;20040;-78
2023/04/11 08:13:00;;;;;;;25.67;13.77;;;;;;;;;;5094982;28;20043;-80
2023/04/11 08:15:45;;;;;;;39.03;23.80;;;;;;;;;;5095651;28;20048;-80
2023/04/11 08:18:31;;;;;;;42.03;26.02;;;;;;;;;;5094671;28;20486;-80
2023/04/11 08:21:17;;;;;;;28.73;16.98;;;;;;;;;;5095555;28;20052;-78
2023/04/11 08:24:03;;;;;;;35.75;21.60;;;;;;;;;;5094899;28;20048;-80
2023/04/11 08:26:48;;;;;;;28.83;15.38;;;;;;;;;;5095321;28;20482;-78
2023/04/11 08:29:33;;;;;;;28.35;18.45;;;;;;;;;;5094723;28;20039;-80
2023/04/11 08:32:19;;;;;;;21.77;13.63;;;;;;;;;;5094447;28;20044;-78
2023/04/11 08:35:05;;;;;;;10.50;7.07;;;;;;;;;;5094616;28;20047;-78
2023/04/11 08:37:50;;;;;;;21.25;12.52;;;;;;;;;;5095279;28;20044;-79
2023/04/11 08:40:36;;;;;;;19.85;13.18;;;;;;;;;;5094329;28;20373;-78
2023/04/11 08:43:22;;;;;;;30.40;18.48;;;;;;;;;;5094690;28;20047;-82
2023/04/11 08:46:07;;;;;;;25.83;16.10;;;;;;;;;;5100987;28;20048;-79
2023/04/11 08:48:51;;;;;;;18.23;9.65;;;;;;;;;;5094507;28;20044;-76
2023/04/11 08:51:39;;;;;;;31.48;19.00;;;;;;;;;;5094064;28;20052;-79
2023/04/11 08:54:25;;;;;;;18.90;9.85;;;;;;;;;;5095068;28;20397;-77
2023/04/11 08:57:24;;;;;;;18.48;9.57;;;;;;;;;;5095014;28;20040;-76
2023/04/11 09:00:13;;;;;;;21.92;11.43;;;;;;;;;;5099540;28;20398;-80
2023/04/11 09:03:04;;;;;;;24.65;14.52;;;;;;;;;;5094256;28;20048;-76
2023/04/11 09:05:50;;;;;;;21.80;12.85;;;;;;;;;;5094512;28;20044;-78
2023/04/11 09:08:38;;;;;;;17.70;10.77;;;;;;;;;;5094242;28;20036;-78
2023/04/11 09:11:24;;;;;;;22.83;11.18;;;;;;;;;;5092728;28;20393;-82
2023/04/11 09:14:10;;;;;;;19.92;13.38;;;;;;;;;;5094188;28;20056;-82
2023/04/11 09:16:58;;;;;;;24.17;15.55;;;;;;;;;;5098685;28;20040;-82
2023/04/11 09:19:43;;;;;;;24.02;14.07;;;;;;;;;;5098444;28;20048;-82
2023/04/11 09:22:35;;;;;;;31.50;16.85;;;;;;;;;;5098844;28;20040;-80
2023/04/11 09:25:22;;;;;;;21.63;11.65;;;;;;;;;;5098506;28;20036;-81
2023/04/11 09:28:09;;;;;;;10.32;6.72;;;;;;;;;;5093489;28;20044;-79
2023/04/11 09:30:54;;;;;;;19.38;11.77;;;;;;;;;;5098032;28;20485;-80
2023/04/11 09:33:51;;;;;;;11.23;6.90;;;;;;;;;;5096899;28;20060;-80
2023/04/11 09:36:37;;;;;;;21.17;12.43;;;;;;;;;;5094245;28;20052;-77
2023/04/11 09:39:27;;;;;;;19.65;11.50;;;;;;;;;;5093247;28;20039;-77
2023/04/11 09:42:23;;;;;;;12.32;8.43;;;;;;;;;;5093369;28;20036;-81
2023/04/11 09:45:29;;;;;;;18.50;9.00;;;;;;;;;;5092574;28;20385;-81
2023/04/11 09:48:15;;;;;;;15.90;9.82;;;;;;;;;;5093221;28;20044;-79
2023/04/11 09:51:04;;;;;;;18.00;9.93;;;;;;;;;;5094016;28;20040;-78
2023/04/11 09:53:51;;;;;;;22.85;13.63;;;;;;;;;;5093474;28;20486;-81
2023/04/11 09:56:36;;;;;;;17.33;10.23;;;;;;;;;;5093107;28;20044;-81
2023/04/11 09:59:25;;;;;;;16.13;9.07;;;;;;;;;;5093021;28;20044;-77
2023/04/11 10:02:10;;;;;;;18.80;13.00;;;;;;;;;;5092717;28;20040;-79
2023/04/11 10:04:58;;;;;;;23.95;14.18;;;;;;;;;;5093110;28;20040;-83
2023/04/11 10:07:54;;;;;;;31.83;18.35;;;;;;;;;;5093598;28;20486;-86
2023/04/11 10:10:42;;;;;;;25.45;16.27;;;;;;;;;;5098571;28;20052;-80
2023/04/11 10:13:42;;;;;;;27.45;17.13;;;;;;;;;;5093677;28;20040;-84
2023/04/11 10:16:31;;;;;;;32.10;18.67;;;;;;;;;;5092808;28;20043;-85
2023/04/11 10:19:16;;;;;;;36.58;22.35;;;;;;;;;;5092814;28;20502;-81
2023/04/11 10:22:02;;;;;;;29.50;18.00;;;;;;;;;;5098286;28;20461;-85
2023/04/11 10:25:19;;;;;;;28.35;18.65;;;;;;;;;;5093833;28;20048;-80
2023/04/11 10:28:04;;;;;;;29.33;18.33;;;;;;;;;;5097493;28;20052;-85
2023/04/11 10:31:03;;;;;;;23.08;15.73;;;;;;;;;;5084267;28;20424;-81
2023/04/11 10:34:11;;;;;;;25.05;16.27;;;;;;;;;;5099605;28;20047;-86
2023/04/11 10:37:06;;;;;;;25.13;16.83;;;;;;;;;;5098597;28;20043;-86
2023/04/11 10:39:52;;;;;;;25.92;17.38;;;;;;;;;;5093441;28;20059;-81
2023/04/11 10:42:42;;;;;;;31.90;17.15;;;;;;;;;;5097547;28;20036;-85
2023/04/11 10:45:29;;;;;;;25.75;15.45;;;;;;;;;;5096630;28;20044;-81
2023/04/11 10:48:15;;;;;;;23.52;14.77;;;;;;;;;;5096812;28;20055;-83
2023/04/11 10:51:26;;;;;;;30.02;16.67;;;;;;;;;;5097146;28;20044;-86
2023/04/11 10:54:32;;;;;;;28.20;17.40;;;;;;;;;;5096540;28;20048;-83
2023/04/11 10:57:17;;;;;;;;;;;;;;;;;;5103381;28;20486;-80
2023/04/11 11:00:10;;;;;;;19.13;12.20;;;;;;;;;;5097193;28;19920;-86
2023/04/11 11:02:56;;;;;;;26.48;16.05;;;;;;;;;;5101795;28;20397;-81
2023/04/11 11:05:41;;;;;;;28.33;18.45;;;;;;;;;;5096731;28;20044;-85
2023/04/11 11:08:33;;;;;;;32.95;20.98;;;;;;;;;;5096019;28;20433;-81
2023/04/11 11:11:19;;;;;;;34.38;19.85;;;;;;;;;;5096185;28;20044;-85
2023/04/11 11:14:05;;;;;;;26.02;15.07;;;;;;;;;;5096969;28;20048;-80
2023/04/11 11:16:50;;;;;;;14.60;9.88;;;;;;;;;;5096482;28;20051;-80
2023/04/11 11:19:36;;;;;;;21.58;12.27;;;;;;;;;;5096306;28;20397;-80
2023/04/11 11:22:24;;;;;;;27.30;16.20;;;;;;;;;;5101392;28;20036;-86
2023/04/11 11:25:09;;;;;;;9.55;6.80;;;;;;;;;;5095046;28;20047;-84
2023/04/11 11:28:03;;;;;;;28.63;14.27;;;;;;;;;;5096136;28;20048;-84
2023/04/11 11:30:50;;;;;;;27.80;17.92;;;;;;;;;;5095737;28;20075;-84
2023/04/11 11:33:40;;;;;;;33.38;18.60;;;;;;;;;;5095524;28;20056;-80
2023/04/11 11:36:27;;;;;;;19.92;13.48;;;;;;;;;;5095761;28;20397;-80
2023/04/11 11:39:13;;;;;;;23.10;15.15;;;;;;;;;;5095398;28;20044;-85
2023/04/11 11:41:58;;;;;;;32.58;19.40;;;;;;;;;;5095772;28;20040;-80
2023/04/11 11:44:43;;;;;;;27.50;16.45;;;;;;;;;;5095876;28;20052;-81
2023/04/11 11:47:40;;;;;;;31.80;17.65;;;;;;;;;;5096357;28;20040;-84
2023/04/11 11:50:31;;;;;;;36.17;19.85;;;;;;;;;;5094938;28;20494;-78
2023/04/11 11:53:16;;;;;;;36.55;19.65;;;;;;;;;;5094926;28;20040;-79
2023/04/11 11:56:11;;;;;;;19.95;13.18;;;;;;;;;;5095965;28;20040;-77
2023/04/11 11:58:56;;;;;;;11.15;7.10;;;;;;;;;;5094017;28;20052;-79
2023/04/11 12:01:42;;;;;;;16.33;7.53;;;;;;;;;;5095465;28;20393;-79
2023/04/11 12:04:29;;;;;;;22.15;13.30;;;;;;;;;;5095062;28;20405;-77
2023/04/11 12:07:20;;;;;;;27.15;14.25;;;;;;;;;;5094933;28;20040;-78
2023/04/11 12:10:10;;;;;;;22.00;13.77;;;;;;;;;;5095313;28;20044;-79
2023/04/11 12:12:55;;;;;;;23.23;13.75;;;;;;;;;;5095037;28;20044;-79
2023/04/11 12:15:44;;;;;;;12.48;7.13;;;;;;;;;;5094948;28;20040;-76
2023/04/11 12:18:30;;;;;;;13.43;8.30;;;;;;;;;;5093803;28;20077;-77
2023/04/11 12:21:16;;;;;;;17.77;10.27;;;;;;;;;;5094665;28;20044;-79
2023/04/11 12:24:01;;;;;;;12.43;8.60;;;;;;;;;;5095849;28;20096;-79
2023/04/11 12:26:47;;;;;;;21.17;12.73;;;;;;;;;;5093600;28;20048;-79
2023/04/11 12:29:31;;;;;;;22.50;14.35;;;;;;;;;;5094024;28;20048;-77
2023/04/11 12:32:17;;;;;;;20.02;11.38;;;;;;;;;;5100535;28;20044;-77
2023/04/11 12:35:04;;;;;;;10.52;7.40;;;;;;;;;;5095459;28;20040;-76
2023/04/11 12:37:49;;;;;;;11.68;6.80;;;;;;;;;;5094435;28;20044;-77
2023/04/11 12:40:35;;;;;;;11.82;8.10;;;;;;;;;;5100276;28;20044;-77
2023/04/11 12:43:20;;;;;;;15.98;9.20;;;;;;;;;;5095271;28;20044;-77
2023/04/11 12:46:06;;;;;;;21.55;13.82;;;;;;;;;;5094135;28;20036;-77
2023/04/11 12:48:51;;;;;;;11.20;6.75;;;;;;;;;;5093381;28;20040;-78
2023/04/11 12:51:37;;;;;;;10.63;6.13;;;;;;;;;;5093364;28;20394;-82
2023/04/11 12:54:22;;;;;;;24.20;15.43;;;;;;;;;;5094136;28;20040;-78
2023/04/11 12:57:08;;;;;;;20.15;12.05;;;;;;;;;;5094189;28;20040;-82
2023/04/11 12:59:54;;;;;;;13.65;8.38;;;;;;;;;;5093887;28;20040;-82
2023/04/11 13:02:40;;;;;;;14.90;9.80;;;;;;;;;;5092308;28;20044;-79
2023/04/11 13:05:26;;;;;;;17.95;9.77;;;;;;;;;;5093285;28;20056;-83
2023/04/11 13:08:11;;;;;;;17.17;11.00;;;;;;;;;;5093805;28;20040;-83
2023/04/11 13:10:57;;;;;;;11.68;7.57;;;;;;;;;;5093763;28;20040;-83
2023/04/11 13:13:43;;;;;;;22.63;13.35;;;;;;;;;;5094959;28;20048;-83
2023/04/11 13:16:28;;;;;;;25.52;15.45;;;;;;;;;;5093755;28;20040;-84
2023/04/11 13:19:15;;;;;;;19.08;11.05;;;;;;;;;;5093227;28;20048;-79
2023/04/11 13:22:01;;;;;;;14.40;9.07;;;;;;;;;;5094552;28;20493;-78
2023/04/11 13:24:46;;;;;;;7.65;5.70;;;;;;;;;;5093634;28;20043;-83
2023/04/11 13:27:32;;;;;;;22.55;10.52;;;;;;;;;;5100481;28;20382;-84
2023/04/11 13:30:17;;;;;;;16.45;10.77;;;;;;;;;;5092727;28;20048;-83
2023/04/11 13:33:03;;;;;;;22.02;12.85;;;;;;;;;;5094207;28;20051;-80
2023/04/11 13:35:49;;;;;;;16.85;11.80;;;;;;;;;;5093719;28;20040;-81
2023/04/11 13:38:34;;;;;;;13.55;8.88;;;;;;;;;;5094065;28;20044;-80
2023/04/11 13:41:20;;;;;;;19.60;12.40;;;;;;;;;;5093389;28;20406;-81
2023/04/11 13:44:05;;;;;;;8.40;5.28;;;;;;;;;;5098744;28;20048;-81
2023/04/11 13:46:51;;;;;;;16.65;8.75;;;;;;;;;;5094021;28;20044;-79
2023/04/11 13:49:36;;;;;;;17.27;10.57;;;;;;;;;;5092861;28;20055;-79
2023/04/11 13:52:22;;;;;;;17.48;10.10;;;;;;;;;;5093089;28;20044;-83
2023/04/11 13:55:08;;;;;;;15.57;11.38;;;;;;;;;;5092884;28;20044;-81
2023/04/11 13:57:53;;;;;;;13.27;9.60;;;;;;;;;;5091785;28;20036;-82
2023/04/11 14:00:39;;;;;;;20.50;11.65;;;;;;;;;;5092715;28;20048;-82
2023/04/11 14:03:28;;;;;;;10.82;6.88;;;;;;;;;;5093472;28;20489;-82
2023/04/11 14:06:13;;;;;;;8.15;5.20;;;;;;;;;;5091672;28;20052;-82
2023/04/11 14:08:57;;;;;;;18.02;8.77;;;;;;;;;;5092655;28;20040;-81
2023/04/11 14:11:43;;;;;;;15.70;9.93;;;;;;;;;;5092786;28;20402;-81
2023/04/11 14:14:30;;;;;;;13.55;10.02;;;;;;;;;;5092696;28;20044;-80
2023/04/11 14:17:16;;;;;;;17.42;11.02;;;;;;;;;;5093493;28;20043;-79
2023/04/11 14:20:04;;;;;;;10.20;7.80;;;;;;;;;;5092352;28;20044;-81
2023/04/11 14:22:49;;;;;;;12.27;7.90;;;;;;;;;;5091535;28;20048;-81
2023/04/11 14:25:35;;;;;;;6.63;4.63;;;;;;;;;;5093304;28;20044;-81
2023/04/11 14:28:20;;;;;;;11.90;8.15;;;;;;;;;;5092381;28;20049;-78
2023/04/11 14:31:06;;;;;;;8.50;5.85;;;;;;;;;;5092816;28;20052;-78
2023/04/11 14:33:52;;;;;;;14.73;9.70;;;;;;;;;;5091460;28;20040;-81
2023/04/11 14:36:37;;;;;;;9.52;7.38;;;;;;;;;;5092688;28;20044;-80
2023/04/11 14:39:22;;;;;;;9.77;6.88;;;;;;;;;;5091461;28;20044;-79
2023/04/11 14:42:08;;;;;;;10.00;6.63;;;;;;;;;;5091725;28;20047;-79
2023/04/11 14:44:55;;;;;;;16.45;9.40;;;;;;;;;;5092654;28;20508;-79
2023/04/11 14:47:40;;;;;;;12.30;7.40;;;;;;;;;;5091399;28;20048;-80
2023/04/11 14:50:25;;;;;;;19.20;10.13;;;;;;;;;;5093894;28;20040;-78
2023/04/11 14:53:11;;;;;;;12.63;8.13;;;;;;;;;;5093362;28;20040;-80
2023/04/11 14:56:03;;;;;;;12.88;7.90;;;;;;;;;;5091198;28;20048;-79
2023/04/11 14:58:50;;;;;;;8.23;6.13;;;;;;;;;;5091686;28;20044;-79
2023/04/11 15:01:36;;;;;;;12.88;8.02;;;;;;;;;;5090576;28;20040;-78
2023/04/11 15:04:21;;;;;;;12.38;5.80;;;;;;;;;;5093654;28;20040;-76
2023/04/11 15:07:07;;;;;;;9.40;6.13;;;;;;;;;;5092378;28;20048;-78
2023/04/11 15:09:52;;;;;;;11.80;7.82;;;;;;;;;;5093273;28;20451;-78
2023/04/11 15:12:38;;;;;;;7.57;4.18;;;;;;;;;;5094744;28;20048;-78
2023/04/11 15:15:23;;;;;;;13.65;10.27;;;;;;;;;;5091615;28;20040;-78
2023/04/11 15:18:39;;;;;;;15.00;8.93;;;;;;;;;;5093305;28;20052;-77
2023/04/11 15:21:26;;;;;;;13.27;8.23;;;;;;;;;;5094235;28;20100;-78
2023/04/11 15:24:11;;;;;;;11.40;6.47;;;;;;;;;;5092124;28;20033;-78
2023/04/11 15:26:56;;;;;;;8.95;6.60;;;;;;;;;;5097960;28;20482;-81
2023/04/11 15:29:42;;;;;;;11.77;8.80;;;;;;;;;;5095893;28;20048;-78
2023/04/11 15:32:28;;;;;;;16.02;8.98;;;;;;;;;;5100726;28;20056;-79
2023/04/11 15:35:14;;;;;;;15.70;8.70;;;;;;;;;;5093704;28;20481;-76
2023/04/11 15:38:00;;;;;;;15.43;9.20;;;;;;;;;;5094770;28;20040;-79
2023/04/11 15:40:50;;;;;;;17.42;10.50;;;;;;;;;;5095205;28;20048;-76
2023/04/11 15:43:36;;;;;;;22.45;11.60;;;;;;;;;;5095128;28;20044;-76
2023/04/11 15:46:21;;;;;;;23.00;11.55;;;;;;;;;;5096524;28;20052;-78
2023/04/11 15:49:06;;;;;;;21.67;12.50;;;;;;;;;;5095579;28;20039;-78
2023/04/11 15:51:52;;;;;;;18.83;12.73;;;;;;;;;;5086157;28;20044;-79
2023/04/11 15:54:36;;;;;;;;;;;;;;;;;;5094389;28;20485;-79
2023/04/11 15:57:21;;;;;;;27.63;16.67;;;;;;;;;;5094443;28;19912;-81
2023/04/11 16:00:08;;;;;;;34.20;16.85;;;;;;;;;;5095796;28;20048;-81
2023/04/11 16:03:01;;;;;;;33.53;18.33;;;;;;;;;;5101500;28;20040;-81
2023/04/11 16:05:49;;;;;;;37.13;19.50;;;;;;;;;;5095080;28;20048;-79
2023/04/11 16:08:36;;;;;;;30.95;18.05;;;;;;;;;;5094457;28;20048;-79
2023/04/11 16:11:21;;;;;;;40.15;21.70;;;;;;;;;;5094655;28;20048;-79
2023/04/11 16:14:07;;;;;;;60.42;32.80;;;;;;;;;;5093942;28;20036;-80
2023/04/11 16:16:53;;;;;;;48.05;27.48;;;;;;;;;;5094535;28;20454;-79
2023/04/11 16:19:38;;;;;;;47.20;26.95;;;;;;;;;;5093153;28;20044;-79
2023/04/11 16:22:24;;;;;;;84.97;39.60;;;;;;;;;;5095081;28;20044;-79
2023/04/11 16:25:09;;;;;;;55.90;30.45;;;;;;;;;;5094269;28;20040;-80
2023/04/11 16:27:55;;;;;;;109.63;49.72;;;;;;;;;;5094480;28;20040;-80